Time;durP1;ratioP1;P1;durP2;ratioP2;P2;SDS_P1;SDS_P2;PMS_P1;PMS_P2;Temp;Humidity;BMP_temperature;BMP_pressure;BME280_temperature;BME280_humidity;BME280_pressure;Samples;Min_cycle;Max_cycle;Signal;HPM_P1;HPM_P2
2023/01/13 00:00:07;;;;;;;14.63;3.50;;;23.40;54.00;;;;;;5070100;28;20274;-80
2023/01/13 00:02:35;;;;;;;13.07;3.77;;;23.50;53.70;;;;;;5071658;28;20519;-76
2023/01/13 00:05:01;;;;;;;12.50;4.30;;;23.40;53.90;;;;;;5070087;28;20566;-76
2023/01/13 00:07:28;;;;;;;9.90;3.40;;;23.50;53.80;;;;;;5069867;28;20283;-75
2023/01/13 00:09:55;;;;;;;7.90;2.97;;;23.50;54.00;;;;;;5070414;28;20211;-79
2023/01/13 00:12:22;;;;;;;10.70;3.33;;;23.50;53.90;;;;;;5071277;28;20312;-74
2023/01/13 00:14:49;;;;;;;11.07;3.20;;;23.50;53.80;;;;;;5071194;28;20283;-77
2023/01/13 00:17:17;;;;;;;13.97;4.53;;;23.50;53.50;;;;;;5069782;28;20290;-75
2023/01/13 00:19:45;;;;;;;8.73;3.10;;;23.50;53.40;;;;;;5071089;28;20218;-75
2023/01/13 00:22:12;;;;;;;9.77;3.23;;;23.50;53.80;;;;;;5069884;28;20207;-78
2023/01/13 00:24:39;;;;;;;12.83;4.07;;;23.50;53.40;;;;;;5070825;28;20278;-75
2023/01/13 00:27:06;;;;;;;9.43;2.87;;;23.40;53.40;;;;;;5070032;28;20259;-78
2023/01/13 00:29:33;;;;;;;10.47;3.50;;;23.50;53.40;;;;;;5071086;28;20214;-78
2023/01/13 00:32:00;;;;;;;10.67;3.33;;;23.50;53.30;;;;;;5070811;28;20725;-78
2023/01/13 00:34:28;;;;;;;8.97;2.73;;;23.50;53.40;;;;;;5066817;28;20210;-78
2023/01/13 00:36:55;;;;;;;8.43;3.00;;;23.50;53.20;;;;;;5069499;28;20323;-79
2023/01/13 00:39:22;;;;;;;8.40;3.50;;;23.40;53.20;;;;;;5069778;28;20204;-79
2023/01/13 00:44:33;;;;;;;8.57;3.07;;;23.50;53.10;;;;;;5068317;28;20210;-81
2023/01/13 00:47:00;;;;;;;9.87;3.27;;;23.50;53.10;;;;;;5070354;28;20207;-81
2023/01/13 00:49:28;;;;;;;7.90;2.67;;;23.40;52.90;;;;;;5070304;28;20196;-78
2023/01/13 00:51:55;;;;;;;9.90;3.50;;;23.50;52.90;;;;;;5071656;28;20326;-76
2023/01/13 00:54:22;;;;;;;8.27;3.43;;;23.40;53.00;;;;;;5069476;28;20242;-78
2023/01/13 00:56:49;;;;;;;8.17;2.90;;;23.40;52.90;;;;;;5069925;28;20203;-76
2023/01/13 00:59:17;;;;;;;10.33;3.47;;;23.40;52.90;;;;;;5070561;28;20199;-75
2023/01/13 01:01:44;;;;;;;9.30;3.60;;;23.40;52.90;;;;;;5070586;28;20278;-75
2023/01/13 01:04:11;;;;;;;9.10;3.23;;;23.40;52.90;;;;;;5066881;28;20636;-74
2023/01/13 01:06:40;;;;;;;9.23;3.40;;;23.40;52.80;;;;;;5069351;28;20231;-80
2023/01/13 01:09:06;;;;;;;8.77;3.40;;;23.40;52.90;;;;;;5070139;28;20291;-79
2023/01/13 01:11:34;;;;;;;9.37;3.13;;;23.40;52.80;;;;;;5070837;28;20633;-75
2023/01/13 01:14:03;;;;;;;9.97;3.33;;;23.40;52.80;;;;;;5067675;28;20235;-75
2023/01/13 01:16:31;;;;;;;13.23;4.50;;;23.40;52.70;;;;;;5067712;28;20209;-76
2023/01/13 01:18:59;;;;;;;11.57;3.67;;;23.40;52.70;;;;;;5066502;28;20291;-81
2023/01/13 01:21:28;;;;;;;14.37;4.33;;;23.40;52.70;;;;;;5066871;28;20244;-77
2023/01/13 01:23:59;;;;;;;10.50;3.87;;;23.40;52.70;;;;;;5070009;28;20222;-82
2023/01/13 01:26:27;;;;;;;13.10;4.10;;;23.40;52.50;;;;;;5070654;28;20739;-81
2023/01/13 01:28:55;;;;;;;10.77;3.50;;;23.40;52.60;;;;;;5067229;28;20290;-76
2023/01/13 01:31:24;;;;;;;9.63;3.57;;;23.40;52.80;;;;;;5068088;28;20318;-75
2023/01/13 01:33:51;;;;;;;11.27;3.80;;;23.40;52.70;;;;;;5068712;28;20238;-75
2023/01/13 01:36:19;;;;;;;11.90;3.97;;;23.30;52.60;;;;;;5069019;28;20288;-81
2023/01/13 01:38:47;;;;;;;17.03;5.27;;;23.40;52.60;;;;;;5065816;28;20661;-77
2023/01/13 01:41:17;;;;;;;11.03;3.57;;;23.40;52.70;;;;;;5068089;28;20282;-77
2023/01/13 01:44:01;;;;;;;9.50;2.73;;;23.40;52.60;;;;;;5070028;28;20202;-79
2023/01/13 01:46:30;;;;;;;8.20;2.93;;;23.40;52.70;;;;;;5070129;28;20310;-80
2023/01/13 01:49:07;;;;;;;8.90;3.43;;;23.40;52.70;;;;;;5067553;28;20208;-80
2023/01/13 01:51:37;;;;;;;9.67;2.93;;;23.30;52.50;;;;;;5069410;28;20591;-76
2023/01/13 01:54:08;;;;;;;15.43;5.10;;;23.30;52.50;;;;;;5068954;28;20716;-81
2023/01/13 01:56:38;;;;;;;15.97;5.00;;;23.30;52.40;;;;;;5068629;28;20200;-83
2023/01/13 01:59:05;;;;;;;10.20;3.53;;;23.30;52.40;;;;;;5068588;28;20622;-75
2023/01/13 02:01:33;;;;;;;13.10;3.83;;;23.30;52.50;;;;;;5068248;28;20686;-77
2023/01/13 02:04:05;;;;;;;10.83;3.80;;;23.30;52.50;;;;;;5068289;28;20207;-83
2023/01/13 02:06:32;;;;;;;10.47;3.53;;;23.30;52.40;;;;;;5069902;28;20243;-84
2023/01/13 02:09:00;;;;;;;11.73;3.83;;;23.30;52.40;;;;;;5052222;28;20212;-83
2023/01/13 02:14:20;;;;;;;10.53;2.97;;;23.30;52.40;;;;;;5068308;28;20252;-84
2023/01/13 02:16:54;;;;;;;17.07;4.87;;;23.30;52.20;;;;;;5068873;28;20207;-82
2023/01/13 02:19:48;;;;;;;11.00;3.27;;;23.30;52.20;;;;;;5064871;28;20230;-84
2023/01/13 02:22:35;;;;;;;7.10;2.67;;;23.30;52.00;;;;;;5052591;28;20559;-82
2023/01/13 02:25:13;;;;;;;11.47;3.93;;;23.30;52.00;;;;;;5058375;28;20582;-84
2023/01/13 02:27:59;;;;;;;7.93;2.60;;;23.30;52.00;;;;;;5067161;28;20202;-83
2023/01/13 02:33:39;;;;;;;10.53;3.27;;;23.30;52.30;;;;;;5066714;28;20269;-78
2023/01/13 02:36:15;;;;;;;10.37;3.30;;;23.30;52.10;;;;;;5067030;28;20214;-76
2023/01/13 02:38:49;;;;;;;9.20;3.17;;;23.30;52.00;;;;;;5063916;28;20233;-74
2023/01/13 02:44:12;;;;;;;9.40;3.30;;;23.30;52.10;;;;;;5067136;28;20210;-75
2023/01/13 02:46:48;;;;;;;16.67;5.70;;;23.30;52.40;;;;;;5067535;28;20211;-75
2023/01/13 02:49:23;;;;;;;8.87;3.03;;;23.30;52.10;;;;;;5065897;28;20199;-78
2023/01/13 02:51:52;;;;;;;9.07;3.20;;;23.30;52.00;;;;;;5069023;28;20533;-74
2023/01/13 02:54:24;;;;;;;11.37;3.40;;;23.30;52.20;;;;;;5068448;28;20239;-75
2023/01/13 02:56:54;;;;;;;16.37;5.10;;;23.30;52.10;;;;;;5064956;28;20293;-79
2023/01/13 02:59:25;;;;;;;10.33;3.53;;;23.30;52.10;;;;;;5053224;28;20214;-75
2023/01/13 03:01:55;;;;;;;13.90;4.17;;;23.30;52.10;;;;;;5067994;28;20286;-75
2023/01/13 03:04:49;;;;;;;8.93;3.13;;;23.20;52.00;;;;;;5068093;28;20215;-75
2023/01/13 03:07:38;;;;;;;9.37;3.27;;;23.30;52.00;;;;;;5061757;28;20203;-74
2023/01/13 03:10:11;;;;;;;10.33;3.77;;;23.30;51.90;;;;;;5062030;28;20203;-75
2023/01/13 03:12:44;;;;;;;8.57;2.80;;;23.30;52.00;;;;;;5067271;28;20289;-80
2023/01/13 03:15:17;;;;;;;21.83;6.50;;;23.30;52.10;;;;;;5065662;28;20199;-77
2023/01/13 03:17:55;;;;;;;6.70;2.67;;;23.20;51.90;;;;;;5066149;28;20565;-74
2023/01/13 03:20:27;;;;;;;8.47;2.87;;;23.30;51.90;;;;;;5068364;28;20297;-75
2023/01/13 03:23:00;;;;;;;10.90;3.30;;;23.30;52.00;;;;;;5067300;28;20210;-75
2023/01/13 03:25:31;;;;;;;8.70;3.20;;;23.30;52.00;;;;;;5065651;28;20196;-74
2023/01/13 03:28:03;;;;;;;6.97;2.63;;;23.30;52.00;;;;;;5063477;28;20203;-74
2023/01/13 03:30:34;;;;;;;11.70;3.57;;;23.30;51.90;;;;;;5067431;28;20278;-75
2023/01/13 03:33:09;;;;;;;7.23;3.00;;;23.20;51.80;;;;;;5061824;28;20232;-74
2023/01/13 03:35:41;;;;;;;9.47;3.40;;;23.30;52.00;;;;;;5066078;28;20714;-76
2023/01/13 03:38:13;;;;;;;12.07;4.13;;;23.30;51.90;;;;;;5064951;28;20227;-74
2023/01/13 03:40:47;;;;;;;9.03;3.27;;;23.20;51.90;;;;;;5067694;28;20207;-74
2023/01/13 03:46:07;;;;;;;9.33;3.23;;;23.30;51.90;;;;;;5067448;28;20206;-74
2023/01/13 03:48:40;;;;;;;11.33;3.87;;;23.20;51.90;;;;;;5066348;28;20620;-75
2023/01/13 03:51:11;;;;;;;18.83;5.63;;;23.20;52.00;;;;;;5065407;28;20199;-74
2023/01/13 03:53:43;;;;;;;7.53;2.77;;;23.30;52.10;;;;;;5065591;28;20227;-75
2023/01/13 03:56:15;;;;;;;8.20;2.60;;;23.30;52.00;;;;;;5067134;28;20205;-75
2023/01/13 03:58:46;;;;;;;9.30;3.33;;;23.20;51.90;;;;;;5065717;28;20793;-75
2023/01/13 04:01:16;;;;;;;8.50;3.20;;;23.30;52.00;;;;;;5067852;28;20631;-76
2023/01/13 04:03:50;;;;;;;8.10;2.73;;;23.30;51.90;;;;;;5066403;28;20290;-75
2023/01/13 04:06:25;;;;;;;8.20;2.97;;;23.20;51.80;;;;;;5068528;28;20286;-75
2023/01/13 04:08:58;;;;;;;9.60;3.23;;;23.20;51.70;;;;;;5066689;28;20286;-75
2023/01/13 04:11:32;;;;;;;8.73;3.00;;;23.20;51.90;;;;;;5068196;28;20210;-75
2023/01/13 04:14:00;;;;;;;10.43;3.27;;;23.30;52.00;;;;;;5064942;28;20227;-75
2023/01/13 04:16:27;;;;;;;10.23;3.17;;;23.30;52.00;;;;;;5067042;28;20204;-75
2023/01/13 04:18:56;;;;;;;14.03;4.50;;;23.30;51.90;;;;;;5066289;28;20207;-77
2023/01/13 04:21:23;;;;;;;7.87;2.73;;;23.30;52.00;;;;;;5065349;28;20294;-77
2023/01/13 04:23:50;;;;;;;11.17;3.83;;;23.30;51.90;;;;;;5065209;28;20647;-75
2023/01/13 04:26:18;;;;;;;13.80;4.37;;;23.30;52.00;;;;;;5062137;28;20535;-76
2023/01/13 04:28:45;;;;;;;9.00;2.80;;;23.30;52.00;;;;;;5064278;28;20199;-78
2023/01/13 04:31:12;;;;;;;12.53;4.27;;;23.30;52.30;;;;;;5063995;28;20935;-77
2023/01/13 04:33:39;;;;;;;7.87;2.80;;;23.30;52.00;;;;;;5059026;28;20809;-78
2023/01/13 04:36:08;;;;;;;9.77;3.17;;;23.30;52.00;;;;;;5065522;28;20352;-81
2023/01/13 04:38:35;;;;;;;10.10;3.50;;;23.30;51.90;;;;;;5066620;28;20683;-81
2023/01/13 04:41:02;;;;;;;10.70;3.67;;;23.30;52.00;;;;;;5068268;28;20253;-81
2023/01/13 04:43:29;;;;;;;7.83;2.53;;;23.30;51.90;;;;;;5071029;28;20206;-82
2023/01/13 04:45:56;;;;;;;7.10;2.23;;;23.30;51.90;;;;;;5070882;28;20204;-81
2023/01/13 04:48:22;;;;;;;9.83;3.37;;;23.30;51.90;;;;;;5071146;28;20192;-82
2023/01/13 04:50:49;;;;;;;7.10;2.73;;;23.30;51.90;;;;;;5069663;28;20209;-82
2023/01/13 04:53:18;;;;;;;11.90;2.97;;;23.30;51.90;;;;;;5070700;28;20286;-78
2023/01/13 04:55:46;;;;;;;9.43;3.33;;;23.30;51.80;;;;;;5069775;28;20202;-79
2023/01/13 04:58:13;;;;;;;7.77;2.57;;;23.30;51.80;;;;;;5070519;28;20202;-77
2023/01/13 05:00:40;;;;;;;8.57;3.03;;;23.30;51.80;;;;;;5071218;28;20217;-77
2023/01/13 05:03:07;;;;;;;10.53;3.60;;;23.30;52.00;;;;;;5070665;28;20206;-77
2023/01/13 05:05:35;;;;;;;9.53;3.27;;;23.30;51.90;;;;;;5068187;28;20312;-77
2023/01/13 05:08:02;;;;;;;8.57;3.10;;;23.30;51.70;;;;;;5069093;28;20231;-78
2023/01/13 05:10:30;;;;;;;8.53;2.90;;;23.30;51.70;;;;;;5067933;28;20725;-80
2023/01/13 05:18:27;;;;;;;11.17;3.23;;;23.30;51.60;;;;;;5070097;28;20766;-76
2023/01/13 05:20:54;;;;;;;12.47;3.83;;;23.30;51.70;;;;;;5069211;28;20579;-77
2023/01/13 05:26:23;;;;;;;9.03;3.27;;;23.30;51.60;;;;;;5027163;28;20209;-76
2023/01/13 05:28:50;;;;;;;11.80;3.90;;;23.30;51.60;;;;;;5025384;28;20211;-80
2023/01/13 05:31:16;;;;;;;14.20;4.47;;;23.30;51.70;;;;;;5045480;28;20585;-80
2023/01/13 05:33:43;;;;;;;10.53;3.80;;;23.30;51.70;;;;;;5067339;28;20254;-79
2023/01/13 05:36:10;;;;;;;9.20;2.67;;;23.20;51.50;;;;;;5070231;28;20278;-80
2023/01/13 05:38:37;;;;;;;10.30;3.20;;;23.30;51.60;;;;;;5069586;28;20203;-79
2023/01/13 05:43:50;;;;;;;10.53;3.40;;;23.30;51.60;;;;;;5069840;28;20210;-80
2023/01/13 05:46:17;;;;;;;9.03;3.07;;;23.20;51.50;;;;;;5069554;28;20286;-76
2023/01/13 05:48:44;;;;;;;10.00;3.43;;;23.30;51.60;;;;;;5069403;28;20200;-76
2023/01/13 05:51:13;;;;;;;17.17;5.20;;;23.20;51.50;;;;;;5066518;28;20257;-77
2023/01/13 05:53:40;;;;;;;16.20;4.83;;;23.30;51.60;;;;;;5067693;28;20224;-77
2023/01/13 05:56:09;;;;;;;11.50;3.57;;;23.20;51.50;;;;;;5068793;28;20663;-77
2023/01/13 05:58:36;;;;;;;9.13;3.43;;;23.30;51.50;;;;;;5069178;28;20207;-76
2023/01/13 06:01:07;;;;;;;9.50;3.27;;;23.20;51.50;;;;;;5070094;28;20235;-78
2023/01/13 06:03:35;;;;;;;8.53;3.20;;;23.30;51.30;;;;;;5067971;28;20286;-76
2023/01/13 06:06:02;;;;;;;8.47;3.03;;;23.30;51.50;;;;;;5069453;28;20195;-76
2023/01/13 06:08:30;;;;;;;10.67;3.70;;;23.30;51.40;;;;;;5065328;28;20992;-76
2023/01/13 06:10:57;;;;;;;9.60;3.50;;;23.20;51.30;;;;;;5068039;28;20231;-77
2023/01/13 06:13:25;;;;;;;9.07;2.93;;;23.30;51.40;;;;;;5067672;28;20195;-76
2023/01/13 06:15:55;;;;;;;11.97;3.77;;;23.30;51.50;;;;;;5069534;28;20294;-80
2023/01/13 06:18:23;;;;;;;9.30;3.03;;;23.30;51.40;;;;;;5067820;28;20207;-79
2023/01/13 06:20:50;;;;;;;9.67;3.43;;;23.30;52.00;;;;;;5067019;28;20203;-78
2023/01/13 06:23:17;;;;;;;10.93;3.53;;;23.30;51.40;;;;;;5067619;28;20206;-79
2023/01/13 06:25:49;;;;;;;8.30;2.93;;;23.30;51.40;;;;;;5069904;28;20203;-79
2023/01/13 06:28:16;;;;;;;9.47;3.10;;;23.30;51.40;;;;;;5067647;28;20284;-78
2023/01/13 06:30:47;;;;;;;7.77;2.97;;;23.30;51.30;;;;;;5068965;28;20203;-81
2023/01/13 06:33:18;;;;;;;14.90;4.53;;;23.30;51.30;;;;;;5065822;28;20573;-79
2023/01/13 06:35:50;;;;;;;7.97;2.73;;;23.20;51.20;;;;;;5068001;28;20249;-79
2023/01/13 06:38:18;;;;;;;10.80;3.23;;;23.20;51.10;;;;;;5068344;28;20227;-77
2023/01/13 06:40:45;;;;;;;8.97;2.93;;;23.20;51.30;;;;;;5049293;28;20319;-77
2023/01/13 06:43:14;;;;;;;9.90;3.33;;;23.30;51.30;;;;;;5061896;28;20651;-78
2023/01/13 06:45:45;;;;;;;8.13;3.30;;;23.30;51.40;;;;;;5067975;28;20282;-76
2023/01/13 06:48:16;;;;;;;13.00;4.23;;;23.30;51.50;;;;;;5061700;28;20218;-77
2023/01/13 06:50:43;;;;;;;15.03;4.80;;;23.30;51.50;;;;;;5058889;28;20280;-76
2023/01/13 06:53:11;;;;;;;17.73;5.37;;;23.30;51.40;;;;;;5059716;28;20919;-76
2023/01/13 06:55:38;;;;;;;10.10;3.50;;;23.30;51.20;;;;;;5063350;28;20215;-77
2023/01/13 06:58:05;;;;;;;9.33;3.00;;;23.30;51.30;;;;;;5063092;28;20659;-76
2023/01/13 07:00:34;;;;;;;7.80;2.93;;;23.30;51.20;;;;;;5067558;28;20214;-76
2023/01/13 07:03:11;;;;;;;17.13;4.97;;;23.30;51.20;;;;;;5060316;28;20596;-79
2023/01/13 07:05:39;;;;;;;10.53;3.47;;;23.30;51.10;;;;;;5053978;28;20291;-78
2023/01/13 07:08:06;;;;;;;16.27;5.63;;;23.30;51.20;;;;;;5056852;28;20708;-77
2023/01/13 07:10:36;;;;;;;14.30;4.40;;;23.30;51.20;;;;;;5059916;28;20215;-76
2023/01/13 07:15:56;;;;;;;10.10;3.47;;;23.30;51.20;;;;;;5066116;28;20229;-77
2023/01/13 07:18:26;;;;;;;14.03;4.73;;;23.30;51.30;;;;;;5060453;28;20216;-76
2023/01/13 07:20:54;;;;;;;12.77;4.20;;;23.30;51.20;;;;;;5063074;28;20216;-78
2023/01/13 07:23:21;;;;;;;17.70;5.53;;;23.30;51.20;;;;;;5058173;28;20235;-78
2023/01/13 07:25:50;;;;;;;13.73;4.53;;;23.30;51.40;;;;;;5059956;28;20254;-77
2023/01/13 07:28:17;;;;;;;9.30;3.27;;;23.30;51.20;;;;;;5065734;28;20256;-77
2023/01/13 07:30:44;;;;;;;11.80;3.80;;;23.30;51.20;;;;;;5065863;28;20200;-77
2023/01/13 07:33:11;;;;;;;11.77;3.70;;;23.30;51.20;;;;;;5064168;28;20291;-75
2023/01/13 07:35:38;;;;;;;14.47;4.63;;;23.30;51.20;;;;;;5063437;28;20660;-76
2023/01/13 07:38:05;;;;;;;8.63;3.07;;;23.30;51.10;;;;;;5067107;28;20227;-76
2023/01/13 07:40:32;;;;;;;14.57;5.03;;;23.30;51.20;;;;;;5060314;28;20566;-75
2023/01/13 07:45:44;;;;;;;10.27;2.97;;;23.30;51.20;;;;;;5064322;28;20603;-75
2023/01/13 07:48:11;;;;;;;8.30;3.07;;;23.30;51.20;;;;;;5065477;28;20211;-75
2023/01/13 07:50:38;;;;;;;11.67;4.17;;;23.40;51.20;;;;;;5064653;28;20196;-74
2023/01/13 07:53:05;;;;;;;13.83;4.63;;;23.30;51.10;;;;;;5062425;28;20200;-75
2023/01/13 07:55:32;;;;;;;27.37;8.00;;;23.30;51.10;;;;;;5057157;28;20987;-77
2023/01/13 07:58:00;;;;;;;14.13;4.10;;;23.40;51.10;;;;;;5060286;28;20199;-74
2023/01/13 08:00:27;;;;;;;14.27;4.53;;;23.40;51.00;;;;;;5067257;28;20209;-75
2023/01/13 08:02:54;;;;;;;13.20;4.30;;;23.40;51.10;;;;;;5059865;28;20561;-77
2023/01/13 08:05:21;;;;;;;8.00;3.37;;;23.30;51.10;;;;;;5066433;28;20223;-74
2023/01/13 08:07:48;;;;;;;17.03;5.77;;;23.40;51.10;;;;;;5058692;28;20191;-74
2023/01/13 08:10:16;;;;;;;14.30;4.70;;;23.30;51.00;;;;;;5058895;28;20206;-75
2023/01/13 08:15:28;;;;;;;19.83;6.13;;;23.30;51.00;;;;;;5067325;28;20992;-74
2023/01/13 08:17:55;;;;;;;8.57;3.10;;;23.40;51.00;;;;;;5065802;28;20198;-74
2023/01/13 08:20:22;;;;;;;16.50;5.50;;;23.40;51.10;;;;;;5064292;28;20221;-75
2023/01/13 08:22:49;;;;;;;16.83;5.20;;;23.40;51.10;;;;;;5062885;28;20208;-77
2023/01/13 08:25:16;;;;;;;13.57;4.40;;;23.30;50.90;;;;;;5063567;28;20294;-75
2023/01/13 08:27:43;;;;;;;13.97;4.13;;;23.40;51.00;;;;;;5062978;28;20200;-77
2023/01/13 08:30:11;;;;;;;17.50;5.73;;;23.40;51.00;;;;;;5061454;28;20195;-75
2023/01/13 08:32:39;;;;;;;12.70;4.30;;;23.40;51.10;;;;;;5062790;28;20199;-75
2023/01/13 08:35:07;;;;;;;18.60;5.93;;;23.40;51.00;;;;;;5061560;28;20655;-76
2023/01/13 08:37:34;;;;;;;8.00;3.20;;;23.40;51.00;;;;;;5065592;28;20294;-76
2023/01/13 08:40:01;;;;;;;6.87;2.57;;;23.40;51.00;;;;;;5068576;28;20206;-76
2023/01/13 08:42:28;;;;;;;15.30;5.40;;;23.40;51.00;;;;;;5066426;28;20233;-75
2023/01/13 08:44:57;;;;;;;15.63;5.10;;;23.40;51.00;;;;;;5062414;28;20199;-78
2023/01/13 08:47:24;;;;;;;11.40;4.20;;;23.40;50.90;;;;;;5061476;28;20302;-76
2023/01/13 08:49:52;;;;;;;19.83;6.33;;;23.40;50.90;;;;;;5061365;28;20207;-75
2023/01/13 08:52:19;;;;;;;13.97;4.60;;;23.40;50.90;;;;;;5061686;28;20201;-76
2023/01/13 08:54:46;;;;;;;17.53;5.20;;;23.40;50.90;;;;;;5062103;28;20227;-75
2023/01/13 08:57:15;;;;;;;11.10;3.73;;;23.40;50.90;;;;;;5061723;28;20569;-77
2023/01/13 08:59:43;;;;;;;9.17;3.17;;;23.50;51.00;;;;;;5063636;28;20235;-75
2023/01/13 09:02:13;;;;;;;13.87;4.87;;;23.50;51.00;;;;;;5066743;28;21616;-75
2023/01/13 09:04:41;;;;;;;16.87;5.30;;;23.50;50.80;;;;;;5060309;28;20274;-75
2023/01/13 09:07:09;;;;;;;16.20;4.83;;;23.50;50.90;;;;;;5060007;28;20203;-74
2023/01/13 09:09:37;;;;;;;15.63;5.00;;;23.50;50.80;;;;;;5061377;28;20212;-78
2023/01/13 09:14:49;;;;;;;14.17;4.73;;;23.60;50.80;;;;;;5065832;28;20235;-77
2023/01/13 09:17:17;;;;;;;11.10;3.60;;;23.60;50.90;;;;;;5066864;28;20199;-76
2023/01/13 09:19:44;;;;;;;14.63;4.83;;;23.60;50.80;;;;;;5066411;28;20211;-72
2023/01/13 09:22:15;;;;;;;21.90;6.00;;;23.60;50.80;;;;;;5062555;28;20206;-73
2023/01/13 09:24:41;;;;;;;11.80;3.30;;;23.60;50.60;;;;;;5070098;28;20199;-73
2023/01/13 09:27:09;;;;;;;13.30;4.00;;;23.70;50.90;;;;;;5067459;28;20200;-73
2023/01/13 09:29:36;;;;;;;9.03;3.10;;;23.60;50.80;;;;;;5069583;28;20992;-73
2023/01/13 09:32:03;;;;;;;14.67;3.50;;;23.60;51.50;;;;;;5070010;28;20391;-77
2023/01/13 09:37:16;;;;;;;13.27;3.67;;;23.60;51.00;;;;;;5066412;28;20364;-82
2023/01/13 09:39:43;;;;;;;12.97;3.63;;;23.60;50.90;;;;;;5066901;28;20211;-77
2023/01/13 09:45:14;;;;;;;15.67;4.93;;;23.60;51.50;;;;;;5062540;28;20581;-67
2023/01/13 09:47:46;;;;;;;84.50;32.90;;;23.60;51.00;;;;;;5068278;28;20208;-80
2023/01/13 09:50:24;;;;;;;57.07;22.73;;;23.60;51.20;;;;;;5068385;28;20206;-69
2023/01/13 09:52:52;;;;;;;49.43;18.83;;;23.60;51.20;;;;;;5068349;28;20291;-69
2023/01/13 09:55:25;;;;;;;49.47;18.30;;;23.60;51.30;;;;;;5068548;28;20235;-80
2023/01/13 09:57:52;;;;;;;38.17;15.73;;;23.60;52.00;;;;;;5069315;28;20290;-78
2023/01/13 10:00:22;;;;;;;42.40;13.83;;;23.60;51.50;;;;;;5062105;28;20278;-78
2023/01/13 10:03:23;;;;;;;26.93;10.20;;;23.50;51.60;;;;;;5064602;28;20219;-73
2023/01/13 10:05:56;;;;;;;24.97;8.60;;;23.50;51.30;;;;;;5056441;28;20284;-72
2023/01/13 10:08:28;;;;;;;23.13;8.23;;;23.60;51.50;;;;;;5069377;28;20202;-73
2023/01/13 10:10:58;;;;;;;14.10;6.30;;;23.50;51.10;;;;;;5069452;28;20200;-73
2023/01/13 10:13:27;;;;;;;17.10;6.27;;;23.50;51.00;;;;;;5067379;28;20286;-76
2023/01/13 10:16:17;;;;;;;25.40;8.83;;;23.60;51.00;;;;;;5065003;28;20711;-74
2023/01/13 10:18:56;;;;;;;14.63;5.40;;;23.60;51.50;;;;;;5068264;28;20207;-73
2023/01/13 10:21:48;;;;;;;22.27;7.50;;;23.60;51.00;;;;;;5068228;28;20290;-76
2023/01/13 10:24:26;;;;;;;14.37;4.90;;;23.60;51.20;;;;;;5064241;28;20713;-76
2023/01/13 10:27:00;;;;;;;23.90;8.03;;;23.70;51.30;;;;;;5054342;28;20204;-82
2023/01/13 10:29:31;;;;;;;22.97;8.67;;;23.70;51.20;;;;;;5058277;28;20332;-76
2023/01/13 10:31:59;;;;;;;29.67;9.47;;;23.70;51.00;;;;;;5062444;28;20207;-72
2023/01/13 10:34:28;;;;;;;13.70;5.70;;;23.80;51.10;;;;;;5058862;28;20211;-73
2023/01/13 10:37:01;;;;;;;20.00;6.67;;;23.80;51.40;;;;;;5061860;28;20281;-73
2023/01/13 10:39:40;;;;;;;12.67;5.27;;;23.80;51.70;;;;;;5060456;28;20210;-79
2023/01/13 10:42:13;;;;;;;17.27;5.80;;;23.80;51.70;;;;;;5067181;28;20199;-72
2023/01/13 10:44:51;;;;;;;14.17;5.20;;;23.80;51.60;;;;;;5068629;28;20310;-74
2023/01/13 10:47:24;;;;;;;12.97;5.33;;;23.90;51.50;;;;;;5068050;28;20195;-82
2023/01/13 10:50:17;;;;;;;16.73;5.50;;;23.90;52.30;;;;;;5067812;28;20942;-77
2023/01/13 10:52:57;;;;;;;11.40;4.87;;;23.90;51.10;;;;;;5065405;28;20200;-78
2023/01/13 10:55:29;;;;;;;17.63;5.87;;;23.90;51.30;;;;;;5068500;28;20227;-81
2023/01/13 10:57:55;;;;;;;21.93;6.93;;;24.00;51.40;;;;;;5067516;28;20207;-79
2023/01/13 11:00:31;;;;;;;16.53;5.77;;;24.00;51.40;;;;;;5068929;28;20667;-83
2023/01/13 11:03:17;;;;;;;15.17;5.23;;;24.00;51.30;;;;;;5068819;28;20219;-76
2023/01/13 11:05:52;;;;;;;13.63;4.23;;;24.00;51.20;;;;;;5069039;28;20233;-74
2023/01/13 11:08:21;;;;;;;16.13;5.23;;;24.00;51.30;;;;;;5068008;28;20206;-74
2023/01/13 11:10:52;;;;;;;19.00;6.37;;;24.00;51.30;;;;;;5066722;28;20202;-72
2023/01/13 11:13:25;;;;;;;13.97;4.63;;;24.00;51.40;;;;;;5066026;28;20207;-72
2023/01/13 11:15:58;;;;;;;19.50;5.43;;;24.00;51.50;;;;;;5060658;28;20246;-77
2023/01/13 11:18:32;;;;;;;18.70;6.20;;;24.00;51.60;;;;;;5059851;28;20203;-72
2023/01/13 11:21:00;;;;;;;20.17;6.60;;;23.90;51.60;;;;;;5058250;28;20217;-73
2023/01/13 11:23:32;;;;;;;14.77;4.90;;;23.90;51.60;;;;;;5060206;28;20237;-75
2023/01/13 11:26:04;;;;;;;15.57;5.30;;;23.90;51.70;;;;;;5060371;28;20288;-77
2023/01/13 11:28:38;;;;;;;13.30;4.47;;;23.90;51.70;;;;;;5060336;28;20199;-75
2023/01/13 11:31:13;;;;;;;18.10;6.13;;;23.80;51.60;;;;;;5054557;28;20187;-71
2023/01/13 11:33:45;;;;;;;10.07;3.40;;;23.80;51.60;;;;;;5071767;28;20200;-76
2023/01/13 11:36:16;;;;;;;12.53;3.80;;;23.80;51.60;;;;;;5088551;28;20324;-69
2023/01/13 11:38:47;;;;;;;10.87;4.27;;;23.80;51.60;;;;;;5080634;28;20234;-77
2023/01/13 11:41:28;;;;;;;13.40;4.30;;;23.80;51.60;;;;;;5075536;28;20435;-76
2023/01/13 11:44:05;;;;;;;18.47;5.87;;;23.80;51.90;;;;;;5060126;28;20952;-79
2023/01/13 11:46:32;;;;;;;26.53;7.43;;;23.80;51.80;;;;;;5058420;28;20195;-82
2023/01/13 11:49:00;;;;;;;11.43;4.20;;;23.80;52.00;;;;;;5063248;28;20207;-77
2023/01/13 11:51:35;;;;;;;17.77;5.50;;;23.80;51.90;;;;;;5061757;28;20210;-79
2023/01/13 11:54:23;;;;;;;11.17;4.00;;;23.70;51.70;;;;;;5071258;28;20194;-73
2023/01/13 11:57:11;;;;;;;12.33;4.03;;;23.80;51.50;;;;;;5071504;28;20223;-79
2023/01/13 11:59:54;;;;;;;12.63;4.73;;;23.80;51.90;;;;;;5070275;28;20203;-78
2023/01/13 12:02:36;;;;;;;13.73;4.50;;;23.70;51.80;;;;;;5067002;28;20222;-78
2023/01/13 12:05:14;;;;;;;13.90;4.03;;;23.70;51.80;;;;;;5071323;28;20207;-78
2023/01/13 12:07:50;;;;;;;17.20;4.87;;;23.70;51.90;;;;;;5071057;28;20238;-78
2023/01/13 12:10:30;;;;;;;10.73;4.03;;;23.70;51.90;;;;;;5070824;28;20253;-77
2023/01/13 12:13:10;;;;;;;11.27;4.27;;;23.70;51.90;;;;;;5069407;28;20659;-74
2023/01/13 12:16:08;;;;;;;16.37;5.47;;;23.60;51.70;;;;;;5069452;28;20715;-76
2023/01/13 12:19:06;;;;;;;13.87;4.07;;;23.60;51.90;;;;;;5060598;28;20290;-77
2023/01/13 12:21:36;;;;;;;12.90;4.17;;;23.60;51.90;;;;;;5033912;28;20283;-73
2023/01/13 12:24:17;;;;;;;11.17;4.10;;;23.60;51.90;;;;;;5067918;28;20289;-73
2023/01/13 12:26:49;;;;;;;13.63;4.27;;;23.60;52.50;;;;;;5067923;28;20226;-73
2023/01/13 12:29:19;;;;;;;12.50;4.10;;;23.60;51.90;;;;;;5070547;28;20199;-74
2023/01/13 12:31:48;;;;;;;11.20;4.17;;;23.50;51.80;;;;;;5066638;28;20290;-78
2023/01/13 12:34:26;;;;;;;11.20;4.23;;;23.60;52.10;;;;;;5071541;28;20204;-77
2023/01/13 12:37:02;;;;;;;18.97;5.87;;;23.50;51.80;;;;;;5071524;28;20328;-76
2023/01/13 12:39:39;;;;;;;11.93;4.40;;;23.60;52.00;;;;;;5068923;28;20191;-78
2023/01/13 12:45:19;;;;;;;11.20;3.87;;;23.60;52.20;;;;;;5071496;28;20742;-83
2023/01/13 12:47:46;;;;;;;13.77;4.83;;;23.70;52.30;;;;;;5054168;28;20214;-81
2023/01/13 12:50:39;;;;;;;12.70;4.93;;;23.70;52.30;;;;;;5067704;28;20295;-78
2023/01/13 12:53:37;;;;;;;14.07;4.30;;;23.70;52.10;;;;;;5066896;28;20242;-75
2023/01/13 12:56:36;;;;;;;10.13;3.43;;;23.80;52.20;;;;;;5063108;28;20306;-74
2023/01/13 12:59:47;;;;;;;17.40;5.40;;;23.80;52.00;;;;;;5067606;28;20203;-80
2023/01/13 13:02:34;;;;;;;9.07;3.80;;;23.90;51.60;;;;;;5061328;28;20230;-80
2023/01/13 13:05:39;;;;;;;15.17;4.53;;;23.90;51.90;;;;;;5070406;28;20289;-79
2023/01/13 13:08:24;;;;;;;9.53;3.57;;;24.00;51.80;;;;;;5070605;28;20281;-79
2023/01/13 13:14:58;;;;;;;10.23;3.83;;;24.00;51.10;;;;;;5047746;28;20262;-78
2023/01/13 13:18:07;;;;;;;12.73;4.80;;;24.00;51.10;;;;;;5068804;28;20230;-81
2023/01/13 13:20:55;;;;;;;11.77;3.67;;;24.00;51.10;;;;;;5070425;28;20251;-78
2023/01/13 13:23:43;;;;;;;16.93;5.50;;;24.00;51.70;;;;;;5069746;28;20206;-81
2023/01/13 13:26:23;;;;;;;19.63;6.20;;;24.00;51.30;;;;;;5066032;28;20199;-79
2023/01/13 13:29:06;;;;;;;8.90;3.80;;;23.90;51.30;;;;;;5061734;28;20737;-79
2023/01/13 13:31:49;;;;;;;9.20;3.33;;;23.90;51.50;;;;;;5069662;28;20314;-79
2023/01/13 13:34:28;;;;;;;9.77;3.93;;;23.90;51.50;;;;;;5055294;28;20199;-82
2023/01/13 13:37:28;;;;;;;9.53;3.73;;;23.90;51.60;;;;;;5069398;28;20317;-79
2023/01/13 13:48:36;;;;;;;8.83;3.60;;;23.90;51.60;;;;;;5049584;28;20210;-80
2023/01/13 13:51:24;;;;;;;11.73;4.27;;;23.90;51.60;;;;;;5070263;28;20204;-79
2023/01/13 13:53:53;;;;;;;9.70;3.83;;;23.90;51.70;;;;;;5069557;28;20287;-80
2023/01/13 13:56:24;;;;;;;9.43;3.33;;;23.90;51.80;;;;;;5069173;28;20219;-78
2023/01/13 13:58:52;;;;;;;11.23;4.07;;;23.90;51.70;;;;;;5066901;28;20238;-79
2023/01/13 14:01:24;;;;;;;9.97;3.80;;;24.00;51.70;;;;;;5069939;28;20206;-79